sensor_id;sensor_type;location;lat;lon;timestamp;pressure;altitude;pressure_sealevel;temperature;humidity
23643;BME280;11998;55.788;37.572;2023-02-16T00:00:45;99979.81;;;-2.72;100.00
23643;BME280;11998;55.788;37.572;2023-02-16T00:01:46;99968.81;;;-2.87;100.00
23643;BME280;11998;55.788;37.572;2023-02-16T00:02:47;99974.25;;;-2.81;100.00
23643;BME280;11998;55.788;37.572;2023-02-16T00:03:49;99972.72;;;-2.76;100.00
23643;BME280;11998;55.788;37.572;2023-02-16T00:04:50;99974.38;;;-2.78;100.00
23643;BME280;11998;55.788;37.572;2023-02-16T00:05:50;99981.31;;;-2.77;100.00
23643;BME280;11998;55.788;37.572;2023-02-16T00:06:52;99978.84;;;-2.74;100.00
23643;BME280;11998;55.788;37.572;2023-02-16T00:07:53;99973.66;;;-2.74;100.00
23643;BME280;11998;55.788;37.572;2023-02-16T00:08:55;99978.50;;;-2.83;100.00
23643;BME280;11998;55.788;37.572;2023-02-16T00:09:56;99978.03;;;-2.73;100.00
23643;BME280;11998;55.788;37.572;2023-02-16T00:10:56;99972.97;;;-2.70;100.00
23643;BME280;11998;55.788;37.572;2023-02-16T00:12:18;99978.16;;;-2.70;100.00
23643;BME280;11998;55.788;37.572;2023-02-16T00:13:39;99970.94;;;-2.77;100.00
23643;BME280;11998;55.788;37.572;2023-02-16T00:14:52;99978.03;;;-2.73;100.00
23643;BME280;11998;55.788;37.572;2023-02-16T00:15:52;99972.03;;;-2.72;100.00
23643;BME280;11998;55.788;37.572;2023-02-16T00:16:54;99979.03;;;-2.69;100.00
23643;BME280;11998;55.788;37.572;2023-02-16T00:17:57;99973.13;;;-2.65;100.00
23643;BME280;11998;55.788;37.572;2023-02-16T00:18:59;99971.53;;;-2.61;100.00
23643;BME280;11998;55.788;37.572;2023-02-16T00:19:59;99966.53;;;-2.57;100.00
23643;BME280;11998;55.788;37.572;2023-02-16T00:21:00;99974.31;;;-2.57;100.00
23643;BME280;11998;55.788;37.572;2023-02-16T00:22:01;99971.78;;;-2.55;100.00
23643;BME280;11998;55.788;37.572;2023-02-16T00:23:02;99963.94;;;-2.57;100.00
23643;BME280;11998;55.788;37.572;2023-02-16T00:24:02;99966.69;;;-2.52;100.00
23643;BME280;11998;55.788;37.572;2023-02-16T00:25:03;99969.28;;;-2.52;100.00
23643;BME280;11998;55.788;37.572;2023-02-16T00:26:05;99965.03;;;-2.50;100.00
23643;BME280;11998;55.788;37.572;2023-02-16T00:27:15;99961.50;;;-2.52;100.00
23643;BME280;11998;55.788;37.572;2023-02-16T00:28:19;99966.69;;;-2.52;100.00
23643;BME280;11998;55.788;37.572;2023-02-16T00:30:26;99962.97;;;-2.60;100.00
23643;BME280;11998;55.788;37.572;2023-02-16T00:31:27;99959.19;;;-2.69;100.00
23643;BME280;11998;55.788;37.572;2023-02-16T00:32:31;99964.38;;;-2.69;100.00
23643;BME280;11998;55.788;37.572;2023-02-16T00:33:31;99959.06;;;-2.72;100.00
23643;BME280;11998;55.788;37.572;2023-02-16T00:34:35;99969.75;;;-2.62;100.00
23643;BME280;11998;55.788;37.572;2023-02-16T00:35:36;99958.25;;;-2.71;100.00
23643;BME280;11998;55.788;37.572;2023-02-16T00:36:37;99955.41;;;-2.77;100.00
23643;BME280;11998;55.788;37.572;2023-02-16T00:37:37;99968.97;;;-2.84;100.00
23643;BME280;11998;55.788;37.572;2023-02-16T00:38:38;99957.97;;;-2.99;100.00
23643;BME280;11998;55.788;37.572;2023-02-16T00:39:40;99965.66;;;-2.80;100.00
23643;BME280;11998;55.788;37.572;2023-02-16T00:40:41;99968.28;;;-2.78;100.00
23643;BME280;11998;55.788;37.572;2023-02-16T00:41:42;99962.34;;;-2.76;100.00
23643;BME280;11998;55.788;37.572;2023-02-16T00:42:53;99958.25;;;-2.71;100.00
23643;BME280;11998;55.788;37.572;2023-02-16T00:43:53;99958.34;;;-2.68;100.00
23643;BME280;11998;55.788;37.572;2023-02-16T00:44:55;99957.63;;;-2.63;100.00
23643;BME280;11998;55.788;37.572;2023-02-16T00:45:56;99954.22;;;-2.62;100.00
23643;BME280;11998;55.788;37.572;2023-02-16T00:47:00;99962.13;;;-2.59;100.00
23643;BME280;11998;55.788;37.572;2023-02-16T00:48:02;99963.28;;;-2.51;100.00
23643;BME280;11998;55.788;37.572;2023-02-16T00:49:03;99960.00;;;-2.47;100.00
23643;BME280;11998;55.788;37.572;2023-02-16T00:50:14;99951.59;;;-2.40;100.00
23643;BME280;11998;55.788;37.572;2023-02-16T00:51:17;99956.25;;;-2.31;100.00
23643;BME280;11998;55.788;37.572;2023-02-16T00:53:21;99960.13;;;-2.20;100.00
23643;BME280;11998;55.788;37.572;2023-02-16T00:54:22;99954.91;;;-2.22;100.00
23643;BME280;11998;55.788;37.572;2023-02-16T00:55:27;99951.34;;;-2.24;100.00
23643;BME280;11998;55.788;37.572;2023-02-16T00:56:28;99952.06;;;-2.28;100.00
23643;BME280;11998;55.788;37.572;2023-02-16T00:57:32;99962.34;;;-2.53;100.00
23643;BME280;11998;55.788;37.572;2023-02-16T00:58:34;99955.56;;;-2.50;100.00
23643;BME280;11998;55.788;37.572;2023-02-16T00:59:35;99946.72;;;-2.55;100.00
23643;BME280;11998;55.788;37.572;2023-02-16T01:00:45;99962.34;;;-2.53;100.00
23643;BME280;11998;55.788;37.572;2023-02-16T01:01:47;99956.34;;;-2.52;100.00
23643;BME280;11998;55.788;37.572;2023-02-16T01:02:50;99957.69;;;-2.62;100.00
23643;BME280;11998;55.788;37.572;2023-02-16T01:03:51;99961.47;;;-2.54;100.00
23643;BME280;11998;55.788;37.572;2023-02-16T01:04:51;99958.72;;;-2.58;100.00
23643;BME280;11998;55.788;37.572;2023-02-16T01:05:52;99956.13;;;-2.58;100.00
23643;BME280;11998;55.788;37.572;2023-02-16T01:07:15;99958.09;;;-2.51;100.00
23643;BME280;11998;55.788;37.572;2023-02-16T01:08:35;99959.28;;;-2.43;100.00
23643;BME280;11998;55.788;37.572;2023-02-16T01:09:55;99961.16;;;-2.61;100.00
23643;BME280;11998;55.788;37.572;2023-02-16T01:11:14;99960.41;;;-2.59;100.00
23643;BME280;11998;55.788;37.572;2023-02-16T01:12:17;99958.09;;;-2.51;100.00
23643;BME280;11998;55.788;37.572;2023-02-16T01:13:18;99960.75;;;-2.50;100.00
23643;BME280;11998;55.788;37.572;2023-02-16T01:14:20;99955.19;;;-2.37;100.00
23643;BME280;11998;55.788;37.572;2023-02-16T01:15:23;99960.50;;;-2.33;100.00
23643;BME280;11998;55.788;37.572;2023-02-16T01:16:44;99955.47;;;-2.29;100.00
23643;BME280;11998;55.788;37.572;2023-02-16T01:17:45;99952.88;;;-2.29;100.00
23643;BME280;11998;55.788;37.572;2023-02-16T01:18:46;99960.66;;;-2.29;100.00
23643;BME280;11998;55.788;37.572;2023-02-16T01:19:46;99953.19;;;-2.21;100.00
23643;BME280;11998;55.788;37.572;2023-02-16T01:20:48;99954.59;;;-2.29;100.00
23643;BME280;11998;55.788;37.572;2023-02-16T01:21:49;99960.78;;;-2.26;100.00
23643;BME280;11998;55.788;37.572;2023-02-16T01:22:49;99960.16;;;-2.43;100.00
23643;BME280;11998;55.788;37.572;2023-02-16T01:23:50;99967.41;;;-2.34;100.00
23643;BME280;11998;55.788;37.572;2023-02-16T01:24:50;99956.22;;;-2.33;100.00
23643;BME280;11998;55.788;37.572;2023-02-16T01:25:51;99958.06;;;-2.29;100.00
23643;BME280;11998;55.788;37.572;2023-02-16T01:26:51;99953.94;;;-2.24;100.00
23643;BME280;11998;55.788;37.572;2023-02-16T01:27:52;99961.00;;;-2.20;100.00
23643;BME280;11998;55.788;37.572;2023-02-16T01:28:53;99949.13;;;-2.13;100.00
23643;BME280;11998;55.788;37.572;2023-02-16T01:29:53;99958.97;;;-2.04;100.00
23643;BME280;11998;55.788;37.572;2023-02-16T01:30:54;99957.94;;;-2.10;100.00
23643;BME280;11998;55.788;37.572;2023-02-16T01:31:54;99950.34;;;-2.03;100.00
23643;BME280;11998;55.788;37.572;2023-02-16T01:32:55;99958.03;;;-2.07;100.00
23643;BME280;11998;55.788;37.572;2023-02-16T01:33:56;99956.22;;;-2.09;100.00
23643;BME280;11998;55.788;37.572;2023-02-16T01:34:56;99960.28;;;-2.16;100.00
23643;BME280;11998;55.788;37.572;2023-02-16T01:35:57;99956.75;;;-2.18;100.00
23643;BME280;11998;55.788;37.572;2023-02-16T01:36:57;99960.25;;;-2.17;100.00
23643;BME280;11998;55.788;37.572;2023-02-16T01:37:58;99956.91;;;-2.13;100.00
23643;BME280;11998;55.788;37.572;2023-02-16T01:38:59;99956.81;;;-2.16;100.00
23643;BME280;11998;55.788;37.572;2023-02-16T01:40:00;99957.84;;;-2.11;100.00
23643;BME280;11998;55.788;37.572;2023-02-16T01:41:13;99957.78;;;-2.13;100.00
23643;BME280;11998;55.788;37.572;2023-02-16T01:42:28;99957.78;;;-2.13;100.00
23643;BME280;11998;55.788;37.572;2023-02-16T01:43:43;99958.47;;;-2.18;100.00
23643;BME280;11998;55.788;37.572;2023-02-16T01:45:01;99962.34;;;-2.31;100.00
23643;BME280;11998;55.788;37.572;2023-02-16T01:46:13;99962.09;;;-2.37;100.00
23643;BME280;11998;55.788;37.572;2023-02-16T01:47:48;99968.03;;;-2.40;100.00
23643;BME280;11998;55.788;37.572;2023-02-16T01:48:51;99965.84;;;-2.29;100.00
23643;BME280;11998;55.788;37.572;2023-02-16T01:49:51;99961.03;;;-2.42;100.00
23643;BME280;11998;55.788;37.572;2023-02-16T01:52:10;99952.16;;;-2.25;100.00
23643;BME280;11998;55.788;37.572;2023-02-16T01:53:28;99960.09;;;-2.22;100.00
23643;BME280;11998;55.788;37.572;2023-02-16T01:54:50;99962.88;;;-2.16;100.00
23643;BME280;11998;55.788;37.572;2023-02-16T01:55:57;99961.22;;;-2.14;100.00
23643;BME280;11998;55.788;37.572;2023-02-16T01:58:16;99964.31;;;-2.24;100.00
23643;BME280;11998;55.788;37.572;2023-02-16T02:01:59;99969.00;;;-2.14;100.00
23643;BME280;11998;55.788;37.572;2023-02-16T02:03:01;99971.75;;;-2.11;100.00
23643;BME280;11998;55.788;37.572;2023-02-16T02:04:58;99965.78;;;-2.08;100.00
23643;BME280;11998;55.788;37.572;2023-02-16T02:06:21;99965.88;;;-2.05;100.00
23643;BME280;11998;55.788;37.572;2023-02-16T02:09:16;99971.50;;;-2.17;100.00
23643;BME280;11998;55.788;37.572;2023-02-16T02:12:05;99973.44;;;-2.35;100.00
23643;BME280;11998;55.788;37.572;2023-02-16T02:13:32;99972.34;;;-2.40;100.00
23643;BME280;11998;55.788;37.572;2023-02-16T02:14:38;99970.59;;;-2.41;100.00
23643;BME280;11998;55.788;37.572;2023-02-16T02:15:39;99981.50;;;-2.50;100.00
23643;BME280;11998;55.788;37.572;2023-02-16T02:16:39;99974.59;;;-2.49;100.00
23643;BME280;11998;55.788;37.572;2023-02-16T02:17:40;99976.34;;;-2.48;100.00
23643;BME280;11998;55.788;37.572;2023-02-16T02:18:40;99971.25;;;-2.47;100.00
23643;BME280;11998;55.788;37.572;2023-02-16T02:20:03;99967.53;;;-2.53;100.00
23643;BME280;11998;55.788;37.572;2023-02-16T02:21:20;99979.31;;;-2.61;100.00
23643;BME280;11998;55.788;37.572;2023-02-16T02:25:12;99970.31;;;-2.71;100.00
23643;BME280;11998;55.788;37.572;2023-02-16T02:28:00;99969.13;;;-2.57;100.00
23643;BME280;11998;55.788;37.572;2023-02-16T02:30:45;99963.44;;;-2.71;100.00
23643;BME280;11998;55.788;37.572;2023-02-16T02:32:10;99973.44;;;-2.80;100.00
23643;BME280;11998;55.788;37.572;2023-02-16T02:34:47;99965.66;;;-2.80;100.00
23643;BME280;11998;55.788;37.572;2023-02-16T02:38:50;99972.59;;;-2.79;100.00
23643;BME280;11998;55.788;37.572;2023-02-16T02:41:36;99976.50;;;-2.68;100.00
23643;BME280;11998;55.788;37.572;2023-02-16T02:43:26;99981.56;;;-2.71;100.00
23643;BME280;11998;55.788;37.572;2023-02-16T02:44:56;99981.03;;;-2.62;100.00
23643;BME280;11998;55.788;37.572;2023-02-16T02:46:18;99981.22;;;-2.57;100.00
23643;BME280;11998;55.788;37.572;2023-02-16T02:47:22;99982.25;;;-2.52;100.00
23643;BME280;11998;55.788;37.572;2023-02-16T02:48:35;99984.03;;;-2.51;100.00
23643;BME280;11998;55.788;37.572;2023-02-16T02:49:35;99980.75;;;-2.47;100.00
23643;BME280;11998;55.788;37.572;2023-02-16T02:52:05;99975.09;;;-2.59;100.00
23643;BME280;11998;55.788;37.572;2023-02-16T02:53:11;99975.09;;;-2.59;100.00
23643;BME280;11998;55.788;37.572;2023-02-16T02:54:25;99976.84;;;-2.58;100.00
23643;BME280;11998;55.788;37.572;2023-02-16T02:55:48;99977.72;;;-2.80;100.00
23643;BME280;11998;55.788;37.572;2023-02-16T02:57:18;99979.91;;;-2.69;100.00
23643;BME280;11998;55.788;37.572;2023-02-16T02:58:39;99978.16;;;-2.70;100.00
23643;BME280;11998;55.788;37.572;2023-02-16T03:01:24;99975.44;;;-2.73;100.00
23643;BME280;11998;55.788;37.572;2023-02-16T03:02:26;99975.31;;;-2.76;100.00
23643;BME280;11998;55.788;37.572;2023-02-16T03:03:35;99973.44;;;-2.80;100.00
23643;BME280;11998;55.788;37.572;2023-02-16T03:04:36;99967.41;;;-2.79;100.00
23643;BME280;11998;55.788;37.572;2023-02-16T03:05:41;99970.94;;;-2.77;100.00
23643;BME280;11998;55.788;37.572;2023-02-16T03:06:48;99977.66;;;-2.82;100.00
23643;BME280;11998;55.788;37.572;2023-02-16T03:07:51;99976.13;;;-2.77;100.00
23643;BME280;11998;55.788;37.572;2023-02-16T03:09:05;99970.31;;;-2.71;100.00
23643;BME280;11998;55.788;37.572;2023-02-16T03:10:06;99974.84;;;-2.66;100.00
23643;BME280;11998;55.788;37.572;2023-02-16T03:11:27;99967.38;;;-2.58;100.00
23643;BME280;11998;55.788;37.572;2023-02-16T03:12:47;99970.06;;;-2.55;100.00
23643;BME280;11998;55.788;37.572;2023-02-16T03:13:53;99971.78;;;-2.55;100.00
23643;BME280;11998;55.788;37.572;2023-02-16T03:14:58;99967.53;;;-2.53;100.00
23643;BME280;11998;55.788;37.572;2023-02-16T03:16:03;99974.94;;;-2.62;100.00
23643;BME280;11998;55.788;37.572;2023-02-16T03:17:11;99974.38;;;-2.78;100.00
23643;BME280;11998;55.788;37.572;2023-02-16T03:18:33;99966.97;;;-2.69;100.00
23643;BME280;11998;55.788;37.572;2023-02-16T03:19:53;99973.31;;;-2.60;100.00
23643;BME280;11998;55.788;37.572;2023-02-16T03:21:14;99971.53;;;-2.61;100.00
23643;BME280;11998;55.788;37.572;2023-02-16T03:22:34;99971.88;;;-2.52;100.00
23643;BME280;11998;55.788;37.572;2023-02-16T03:23:54;99972.00;;;-2.49;100.00
23643;BME280;11998;55.788;37.572;2023-02-16T03:25:14;99967.06;;;-2.43;100.00
23643;BME280;11998;55.788;37.572;2023-02-16T03:26:34;99965.19;;;-2.47;100.00
23643;BME280;11998;55.788;37.572;2023-02-16T03:27:54;99965.19;;;-2.47;100.00
23643;BME280;11998;55.788;37.572;2023-02-16T03:29:14;99964.31;;;-2.48;100.00
23643;BME280;11998;55.788;37.572;2023-02-16T03:30:23;99959.75;;;-2.53;100.00
23643;BME280;11998;55.788;37.572;2023-02-16T03:31:29;99967.59;;;-2.52;100.00
23643;BME280;11998;55.788;37.572;2023-02-16T03:32:32;99966.66;;;-2.54;100.00
23643;BME280;11998;55.788;37.572;2023-02-16T03:33:34;99965.97;;;-2.48;100.00
23643;BME280;11998;55.788;37.572;2023-02-16T03:34:35;99971.47;;;-2.41;100.00
23643;BME280;11998;55.788;37.572;2023-02-16T03:35:37;99967.28;;;-2.37;100.00
23643;BME280;11998;55.788;37.572;2023-02-16T03:36:40;99964.81;;;-2.34;100.00
23643;BME280;11998;55.788;37.572;2023-02-16T03:37:42;99958.88;;;-2.54;100.00
23643;BME280;11998;55.788;37.572;2023-02-16T03:38:43;99963.28;;;-2.51;100.00
23643;BME280;11998;55.788;37.572;2023-02-16T03:39:43;99971.66;;;-2.58;100.00
23643;BME280;11998;55.788;37.572;2023-02-16T03:41:03;99967.47;;;-2.55;100.00
23643;BME280;11998;55.788;37.572;2023-02-16T03:42:04;99960.53;;;-2.56;100.00
23643;BME280;11998;55.788;37.572;2023-02-16T03:43:06;99966.94;;;-2.46;100.00
23643;BME280;11998;55.788;37.572;2023-02-16T03:44:07;99968.81;;;-2.42;100.00
23643;BME280;11998;55.788;37.572;2023-02-16T03:45:08;99967.88;;;-2.44;100.00
23643;BME280;11998;55.788;37.572;2023-02-16T03:46:08;99957.09;;;-2.55;100.00
23643;BME280;11998;55.788;37.572;2023-02-16T03:47:09;99960.47;;;-2.57;100.00
23643;BME280;11998;55.788;37.572;2023-02-16T03:48:10;99962.34;;;-2.53;100.00
23643;BME280;11998;55.788;37.572;2023-02-16T03:49:11;99968.47;;;-2.51;100.00
23643;BME280;11998;55.788;37.572;2023-02-16T03:50:12;99962.50;;;-2.49;100.00
23643;BME280;11998;55.788;37.572;2023-02-16T03:51:12;99964.94;;;-2.53;100.00
23643;BME280;11998;55.788;37.572;2023-02-16T03:52:13;99965.75;;;-2.54;100.00
23643;BME280;11998;55.788;37.572;2023-02-16T03:53:14;99969.75;;;-2.62;100.00
23643;BME280;11998;55.788;37.572;2023-02-16T03:54:14;99968.25;;;-2.57;100.00
23643;BME280;11998;55.788;37.572;2023-02-16T03:55:15;99969.50;;;-2.48;100.00
23643;BME280;11998;55.788;37.572;2023-02-16T03:56:15;99970.47;;;-2.44;100.00
23643;BME280;11998;55.788;37.572;2023-02-16T03:57:16;99968.88;;;-2.41;100.00
23643;BME280;11998;55.788;37.572;2023-02-16T03:58:19;99967.28;;;-2.37;100.00
23643;BME280;11998;55.788;37.572;2023-02-16T03:59:20;99966.38;;;-2.38;100.00
23643;BME280;11998;55.788;37.572;2023-02-16T04:00:20;99966.38;;;-2.38;100.00
23643;BME280;11998;55.788;37.572;2023-02-16T04:01:21;99962.16;;;-2.35;100.00
23643;BME280;11998;55.788;37.572;2023-02-16T04:02:22;99970.47;;;-2.44;100.00
23643;BME280;11998;55.788;37.572;2023-02-16T04:03:23;99968.72;;;-2.45;100.00
23643;BME280;11998;55.788;37.572;2023-02-16T04:04:24;99963.47;;;-2.69;100.00
23643;BME280;11998;55.788;37.572;2023-02-16T04:05:24;99961.75;;;-2.91;100.00
23643;BME280;11998;55.788;37.572;2023-02-16T04:06:25;99968.59;;;-2.93;100.00
23643;BME280;11998;55.788;37.572;2023-02-16T04:07:25;99967.81;;;-2.90;100.00
23643;BME280;11998;55.788;37.572;2023-02-16T04:08:26;99967.81;;;-2.90;100.00
23643;BME280;11998;55.788;37.572;2023-02-16T04:09:26;99974.72;;;-2.91;100.00
23643;BME280;11998;55.788;37.572;2023-02-16T04:10:27;99965.22;;;-2.90;100.00
23643;BME280;11998;55.788;37.572;2023-02-16T04:11:27;99967.94;;;-2.87;100.00
23643;BME280;11998;55.788;37.572;2023-02-16T04:12:47;99963.44;;;-3.14;100.00
23643;BME280;11998;55.788;37.572;2023-02-16T04:13:47;99964.91;;;-2.98;100.00
23643;BME280;11998;55.788;37.572;2023-02-16T04:14:48;99965.06;;;-2.95;100.00
23643;BME280;11998;55.788;37.572;2023-02-16T04:15:49;99961.53;;;-2.97;100.00
23643;BME280;11998;55.788;37.572;2023-02-16T04:16:49;99962.00;;;-2.85;100.00
23643;BME280;11998;55.788;37.572;2023-02-16T04:17:50;99957.97;;;-2.77;100.00
23643;BME280;11998;55.788;37.572;2023-02-16T04:18:51;99959.81;;;-2.74;100.00
23643;BME280;11998;55.788;37.572;2023-02-16T04:19:51;99958.69;;;-2.81;100.00
23643;BME280;11998;55.788;37.572;2023-02-16T04:20:52;99952.91;;;-2.74;100.00
23643;BME280;11998;55.788;37.572;2023-02-16T04:21:53;99953.88;;;-2.72;100.00
23643;BME280;11998;55.788;37.572;2023-02-16T04:22:53;99952.44;;;-2.63;100.00
23643;BME280;11998;55.788;37.572;2023-02-16T04:23:54;99965.47;;;-2.62;100.00
23643;BME280;11998;55.788;37.572;2023-02-16T04:24:54;99960.41;;;-2.59;100.00
23643;BME280;11998;55.788;37.572;2023-02-16T04:25:55;99951.88;;;-2.56;100.00
23643;BME280;11998;55.788;37.572;2023-02-16T04:26:55;99950.78;;;-2.61;100.00
23643;BME280;11998;55.788;37.572;2023-02-16T04:27:56;99953.13;;;-2.69;100.00
23643;BME280;11998;55.788;37.572;2023-02-16T04:28:56;99944.44;;;-2.92;100.00
23643;BME280;11998;55.788;37.572;2023-02-16T04:29:57;99940.19;;;-2.90;100.00
23643;BME280;11998;55.788;37.572;2023-02-16T04:30:58;99946.31;;;-2.88;100.00
23643;BME280;11998;55.788;37.572;2023-02-16T04:31:58;99944.91;;;-2.80;100.00
23643;BME280;11998;55.788;37.572;2023-02-16T04:32:59;99951.97;;;-2.76;100.00
23643;BME280;11998;55.788;37.572;2023-02-16T04:33:59;99945.03;;;-2.77;100.00
23643;BME280;11998;55.788;37.572;2023-02-16T04:35:00;99942.50;;;-2.75;100.00
23643;BME280;11998;55.788;37.572;2023-02-16T04:36:00;99940.09;;;-2.71;100.00
23643;BME280;11998;55.788;37.572;2023-02-16T04:37:01;99939.44;;;-2.65;100.00
23643;BME280;11998;55.788;37.572;2023-02-16T04:38:02;99936.56;;;-2.73;100.00
23643;BME280;11998;55.788;37.572;2023-02-16T04:39:03;99932.69;;;-2.84;100.00
23643;BME280;11998;55.788;37.572;2023-02-16T04:40:04;99934.66;;;-2.99;100.00
23643;BME280;11998;55.788;37.572;2023-02-16T04:41:05;99935.84;;;-2.91;100.00
23643;BME280;11998;55.788;37.572;2023-02-16T04:42:06;99941.50;;;-2.79;100.00
23643;BME280;11998;55.788;37.572;2023-02-16T04:43:06;99933.66;;;-2.80;100.00
23643;BME280;11998;55.788;37.572;2023-02-16T04:44:07;99940.19;;;-2.90;100.00
23643;BME280;11998;55.788;37.572;2023-02-16T04:45:09;99946.47;;;-2.85;100.00
23643;BME280;11998;55.788;37.572;2023-02-16T04:46:09;99938.69;;;-2.85;100.00
23643;BME280;11998;55.788;37.572;2023-02-16T04:47:10;99943.88;;;-2.85;100.00
23643;BME280;11998;55.788;37.572;2023-02-16T04:48:11;99948.34;;;-2.81;100.00
23643;BME280;11998;55.788;37.572;2023-02-16T04:49:11;99941.28;;;-2.85;100.00
23643;BME280;11998;55.788;37.572;2023-02-16T04:50:12;99944.56;;;-2.89;100.00
23643;BME280;11998;55.788;37.572;2023-02-16T04:51:12;99945.97;;;-2.97;100.00
23643;BME280;11998;55.788;37.572;2023-02-16T04:52:13;99953.16;;;-2.90;100.00
23643;BME280;11998;55.788;37.572;2023-02-16T04:53:14;99954.47;;;-2.79;100.00
23643;BME280;11998;55.788;37.572;2023-02-16T04:54:14;99962.50;;;-2.73;100.00
23643;BME280;11998;55.788;37.572;2023-02-16T04:55:15;99947.50;;;-2.80;100.00
23643;BME280;11998;55.788;37.572;2023-02-16T04:56:15;99950.00;;;-2.83;100.00
23643;BME280;11998;55.788;37.572;2023-02-16T04:57:16;99953.25;;;-2.87;100.00
23643;BME280;11998;55.788;37.572;2023-02-16T04:58:18;99945.97;;;-2.97;100.00
23643;BME280;11998;55.788;37.572;2023-02-16T04:59:18;99956.47;;;-2.94;100.00
23643;BME280;11998;55.788;37.572;2023-02-16T05:00:19;99951.28;;;-2.94;100.00
23643;BME280;11998;55.788;37.572;2023-02-16T05:01:22;99948.09;;;-2.87;100.00
23643;BME280;11998;55.788;37.572;2023-02-16T05:02:22;99950.25;;;-3.20;100.00
23643;BME280;11998;55.788;37.572;2023-02-16T05:03:23;99954.09;;;-3.31;100.00
23643;BME280;11998;55.788;37.572;2023-02-16T05:04:24;99940.44;;;-3.27;100.00
23643;BME280;11998;55.788;37.572;2023-02-16T05:05:24;99950.31;;;-3.18;100.00
23643;BME280;11998;55.788;37.572;2023-02-16T05:06:25;99946.22;;;-3.12;100.00
23643;BME280;11998;55.788;37.572;2023-02-16T05:07:25;99944.75;;;-3.48;100.00
23643;BME280;11998;55.788;37.572;2023-02-16T05:08:26;99942.53;;;-3.60;100.00
23643;BME280;11998;55.788;37.572;2023-02-16T05:09:27;99951.31;;;-3.57;100.00
23643;BME280;11998;55.788;37.572;2023-02-16T05:10:28;99949.03;;;-3.49;100.00
23643;BME280;11998;55.788;37.572;2023-02-16T05:11:28;99950.78;;;-3.48;100.00
23643;BME280;11998;55.788;37.572;2023-02-16T05:12:47;99954.28;;;-3.47;100.00
23643;BME280;11998;55.788;37.572;2023-02-16T05:14:21;99954.72;;;-3.37;100.00
23643;BME280;11998;55.788;37.572;2023-02-16T05:15:40;99966.00;;;-3.76;100.00
23643;BME280;11998;55.788;37.572;2023-02-16T05:16:42;99960.13;;;-3.72;100.00
23643;BME280;11998;55.788;37.572;2023-02-16T05:17:43;99963.69;;;-3.70;100.00
23643;BME280;11998;55.788;37.572;2023-02-16T05:18:44;99963.94;;;-3.64;100.00
23643;BME280;11998;55.788;37.572;2023-02-16T05:19:49;99957.16;;;-3.81;100.00
23643;BME280;11998;55.788;37.572;2023-02-16T05:20:50;99957.78;;;-3.87;100.00
23643;BME280;11998;55.788;37.572;2023-02-16T05:22:10;99947.25;;;-3.92;100.00
23643;BME280;11998;55.788;37.572;2023-02-16T05:23:10;99971.75;;;-3.83;100.00
23643;BME280;11998;55.788;37.572;2023-02-16T05:24:11;99961.13;;;-3.90;100.00
23643;BME280;11998;55.788;37.572;2023-02-16T05:25:12;99958.94;;;-3.80;100.00
23643;BME280;11998;55.788;37.572;2023-02-16T05:26:15;99973.75;;;-3.76;100.00
23643;BME280;11998;55.788;37.572;2023-02-16T05:27:20;99963.16;;;-3.82;100.00
23643;BME280;11998;55.788;37.572;2023-02-16T05:28:21;99970.09;;;-3.81;100.00
23643;BME280;11998;55.788;37.572;2023-02-16T05:29:21;99967.88;;;-3.93;100.00
23643;BME280;11998;55.788;37.572;2023-02-16T05:30:22;99964.41;;;-3.94;100.00
23643;BME280;11998;55.788;37.572;2023-02-16T05:31:24;99973.34;;;-3.86;100.00
23643;BME280;11998;55.788;37.572;2023-02-16T05:32:25;99976.34;;;-3.76;100.00
23643;BME280;11998;55.788;37.572;2023-02-16T05:33:26;99974.22;;;-4.06;100.00
23643;BME280;11998;55.788;37.572;2023-02-16T05:34:26;99974.22;;;-4.06;100.00
23643;BME280;11998;55.788;37.572;2023-02-16T05:35:27;99974.69;;;-3.95;100.00
23643;BME280;11998;55.788;37.572;2023-02-16T05:36:27;99969.06;;;-3.85;100.00
23643;BME280;11998;55.788;37.572;2023-02-16T05:37:28;99973.63;;;-3.79;100.00
23643;BME280;11998;55.788;37.572;2023-02-16T05:38:28;99976.28;;;-3.78;100.00
23643;BME280;11998;55.788;37.572;2023-02-16T05:39:29;99965.81;;;-3.81;100.00
23643;BME280;11998;55.788;37.572;2023-02-16T05:40:30;99970.78;;;-3.86;100.00
23643;BME280;11998;55.788;37.572;2023-02-16T05:41:30;99970.34;;;-3.75;100.00
23643;BME280;11998;55.788;37.572;2023-02-16T05:42:31;99965.56;;;-3.66;100.00
23643;BME280;11998;55.788;37.572;2023-02-16T05:43:31;99967.09;;;-3.71;100.00
23643;BME280;11998;55.788;37.572;2023-02-16T05:44:32;99972.91;;;-3.56;100.00
23643;BME280;11998;55.788;37.572;2023-02-16T05:45:32;99969.81;;;-3.68;100.00
23643;BME280;11998;55.788;37.572;2023-02-16T05:46:35;99968.72;;;-3.73;100.00
23643;BME280;11998;55.788;37.572;2023-02-16T05:47:39;99971.97;;;-3.58;100.00
23643;BME280;11998;55.788;37.572;2023-02-16T05:48:39;99960.09;;;-3.53;100.00
23643;BME280;11998;55.788;37.572;2023-02-16T05:49:40;99967.09;;;-3.50;100.00
23643;BME280;11998;55.788;37.572;2023-02-16T05:50:40;99973.16;;;-3.50;100.00
23643;BME280;11998;55.788;37.572;2023-02-16T05:51:42;99966.47;;;-3.45;100.00
23643;BME280;11998;55.788;37.572;2023-02-16T05:52:43;99963.50;;;-3.54;100.00
23643;BME280;11998;55.788;37.572;2023-02-16T05:53:43;99966.97;;;-3.53;100.00
23643;BME280;11998;55.788;37.572;2023-02-16T05:54:44;99964.50;;;-3.50;100.00
23643;BME280;11998;55.788;37.572;2023-02-16T05:55:44;99959.53;;;-3.46;100.00
23643;BME280;11998;55.788;37.572;2023-02-16T05:56:47;99963.63;;;-3.51;100.00
23643;BME280;11998;55.788;37.572;2023-02-16T05:57:48;99968.38;;;-3.41;100.00
23643;BME280;11998;55.788;37.572;2023-02-16T05:58:49;99962.53;;;-3.35;100.00
23643;BME280;11998;55.788;37.572;2023-02-16T05:59:50;99960.03;;;-3.34;100.00
23643;BME280;11998;55.788;37.572;2023-02-16T06:00:52;99961.88;;;-3.31;100.00